sensor_id;sensor_type;location;lat;lon;timestamp;pressure;altitude;pressure_sealevel;temperature;humidity
71239;BME280;61342;51.442;7.370;2023-04-25T00:00:04;99409.53;;;8.30;88.90
71239;BME280;61342;51.442;7.370;2023-04-25T00:01:06;99386.22;;;8.15;88.46
71239;BME280;61342;51.442;7.370;2023-04-25T00:02:08;99407.19;;;8.29;88.99
71239;BME280;61342;51.442;7.370;2023-04-25T00:03:09;99400.69;;;8.28;88.96
71239;BME280;61342;51.442;7.370;2023-04-25T00:04:09;99399.13;;;8.27;88.93
71239;BME280;61342;51.442;7.370;2023-04-25T00:05:09;99400.47;;;8.26;88.58
71239;BME280;61342;51.442;7.370;2023-04-25T00:06:10;99396.81;;;8.26;89.01
71239;BME280;61342;51.442;7.370;2023-04-25T00:07:11;99405.09;;;8.29;88.90
71239;BME280;61342;51.442;7.370;2023-04-25T00:08:11;99403.00;;;8.30;88.89
71239;BME280;61342;51.442;7.370;2023-04-25T00:09:12;99411.38;;;8.28;89.21
71239;BME280;61342;51.442;7.370;2023-04-25T00:10:12;99406.41;;;8.28;89.15
71239;BME280;61342;51.442;7.370;2023-04-25T00:11:12;99413.69;;;8.29;89.26
71239;BME280;61342;51.442;7.370;2023-04-25T00:12:13;99411.06;;;8.31;88.95
71239;BME280;61342;51.442;7.370;2023-04-25T00:13:13;99410.84;;;8.29;89.19
71239;BME280;61342;51.442;7.370;2023-04-25T00:14:14;99418.13;;;8.30;88.96
71239;BME280;61342;51.442;7.370;2023-04-25T00:15:16;99408.25;;;8.26;89.13
71239;BME280;61342;51.442;7.370;2023-04-25T00:16:17;99406.94;;;8.27;89.07
71239;BME280;61342;51.442;7.370;2023-04-25T00:17:18;99414.47;;;8.30;89.29
71239;BME280;61342;51.442;7.370;2023-04-25T00:18:19;99411.38;;;8.28;89.06
71239;BME280;61342;51.442;7.370;2023-04-25T00:19:20;99408.25;;;8.26;89.30
71239;BME280;61342;51.442;7.370;2023-04-25T00:20:20;99410.84;;;8.29;89.27
71239;BME280;61342;51.442;7.370;2023-04-25T00:21:22;99410.03;;;8.29;89.28
71239;BME280;61342;51.442;7.370;2023-04-25T00:22:24;99413.91;;;8.31;89.37
71239;BME280;61342;51.442;7.370;2023-04-25T00:23:24;99409.53;;;8.30;89.36
71239;BME280;61342;51.442;7.370;2023-04-25T00:24:25;99400.97;;;8.25;89.23
71239;BME280;61342;51.442;7.370;2023-04-25T00:25:25;99418.88;;;8.31;89.37
71239;BME280;61342;51.442;7.370;2023-04-25T00:26:26;99420.97;;;8.30;89.44
71239;BME280;61342;51.442;7.370;2023-04-25T00:27:27;99421.47;;;8.34;89.10
71239;BME280;61342;51.442;7.370;2023-04-25T00:28:27;99409.81;;;8.27;89.50
71239;BME280;61342;51.442;7.370;2023-04-25T00:29:27;99415.47;;;8.32;89.38
71239;BME280;61342;51.442;7.370;2023-04-25T00:30:28;99419.91;;;8.33;89.46
71239;BME280;61342;51.442;7.370;2023-04-25T00:31:28;99404.91;;;8.22;89.57
71239;BME280;61342;51.442;7.370;2023-04-25T00:32:29;99413.69;;;8.29;89.27
71239;BME280;61342;51.442;7.370;2023-04-25T00:33:29;99419.66;;;8.31;89.73
71239;BME280;61342;51.442;7.370;2023-04-25T00:34:29;99411.84;;;8.32;89.71
71239;BME280;61342;51.442;7.370;2023-04-25T00:35:30;99427.19;;;8.34;89.27
71239;BME280;61342;51.442;7.370;2023-04-25T00:36:30;99413.91;;;8.31;89.67
71239;BME280;61342;51.442;7.370;2023-04-25T00:37:31;99407.72;;;8.27;89.70
71239;BME280;61342;51.442;7.370;2023-04-25T00:38:32;99422.22;;;8.35;89.78
71239;BME280;61342;51.442;7.370;2023-04-25T00:39:32;99410.53;;;8.33;89.67
71239;BME280;61342;51.442;7.370;2023-04-25T00:40:32;99412.41;;;8.30;89.89
71239;BME280;61342;51.442;7.370;2023-04-25T00:41:33;99418.59;;;8.34;89.87
71239;BME280;61342;51.442;7.370;2023-04-25T00:42:35;99418.06;;;8.36;89.86
71239;BME280;61342;51.442;7.370;2023-04-25T00:43:36;99415.19;;;8.36;89.84
71239;BME280;61342;51.442;7.370;2023-04-25T00:44:37;99418.81;;;8.36;89.75
71239;BME280;61342;51.442;7.370;2023-04-25T00:45:39;99418.81;;;8.36;90.26
71239;BME280;61342;51.442;7.370;2023-04-25T00:46:39;99420.38;;;8.37;90.10
71239;BME280;61342;51.442;7.370;2023-04-25T00:47:41;99421.16;;;8.38;90.13
71239;BME280;61342;51.442;7.370;2023-04-25T00:48:41;99427.66;;;8.38;89.97
71239;BME280;61342;51.442;7.370;2023-04-25T00:49:42;99420.63;;;8.39;90.10
71239;BME280;61342;51.442;7.370;2023-04-25T00:50:51;99416.97;;;8.39;90.05
71239;BME280;61342;51.442;7.370;2023-04-25T00:51:51;99417.75;;;8.39;90.11
71239;BME280;61342;51.442;7.370;2023-04-25T00:52:52;99407.63;;;8.38;90.11
71239;BME280;61342;51.442;7.370;2023-04-25T00:53:53;99409.69;;;8.38;90.51
71239;BME280;61342;51.442;7.370;2023-04-25T00:54:53;99408.69;;;8.35;90.29
71239;BME280;61342;51.442;7.370;2023-04-25T00:55:54;99412.03;;;8.39;90.30
71239;BME280;61342;51.442;7.370;2023-04-25T00:56:55;99418.22;;;8.43;90.47
71239;BME280;61342;51.442;7.370;2023-04-25T00:57:55;99409.41;;;8.41;90.47
71239;BME280;61342;51.442;7.370;2023-04-25T00:58:56;99416.44;;;8.40;90.39
71239;BME280;61342;51.442;7.370;2023-04-25T00:59:56;99416.44;;;8.40;90.43
71239;BME280;61342;51.442;7.370;2023-04-25T01:00:57;99405.00;;;8.40;90.55
71239;BME280;61342;51.442;7.370;2023-04-25T01:01:58;99408.63;;;8.41;90.68
71239;BME280;61342;51.442;7.370;2023-04-25T01:02:58;99410.97;;;8.42;90.66
71239;BME280;61342;51.442;7.370;2023-04-25T01:04:00;99417.22;;;8.41;90.56
71239;BME280;61342;51.442;7.370;2023-04-25T01:05:02;99400.09;;;8.35;90.52
71239;BME280;61342;51.442;7.370;2023-04-25T01:06:03;99416.69;;;8.42;90.76
71239;BME280;61342;51.442;7.370;2023-04-25T01:07:03;99416.44;;;8.40;90.56
71239;BME280;61342;51.442;7.370;2023-04-25T01:08:04;99420.88;;;8.41;90.77
71239;BME280;61342;51.442;7.370;2023-04-25T01:09:04;99417.22;;;8.41;90.67
71239;BME280;61342;51.442;7.370;2023-04-25T01:10:05;99413.34;;;8.38;90.96
71239;BME280;61342;51.442;7.370;2023-04-25T01:11:06;99419.56;;;8.42;90.92
71239;BME280;61342;51.442;7.370;2023-04-25T01:12:07;99416.44;;;8.40;91.01
71239;BME280;61342;51.442;7.370;2023-04-25T01:13:07;99420.63;;;8.39;91.00
71239;BME280;61342;51.442;7.370;2023-04-25T01:14:08;99416.22;;;8.38;91.38
71239;BME280;61342;51.442;7.370;2023-04-25T01:15:09;99413.09;;;8.36;91.42
71239;BME280;61342;51.442;7.370;2023-04-25T01:16:09;99413.91;;;8.31;91.48
71239;BME280;61342;51.442;7.370;2023-04-25T01:17:10;99427.66;;;8.38;91.66
71239;BME280;61342;51.442;7.370;2023-04-25T01:18:11;99419.38;;;8.35;91.58
71239;BME280;61342;51.442;7.370;2023-04-25T01:19:16;99413.09;;;8.36;91.93
71239;BME280;61342;51.442;7.370;2023-04-25T01:20:17;99421.47;;;8.34;92.13
71239;BME280;61342;51.442;7.370;2023-04-25T01:21:18;99415.75;;;8.34;92.37
71239;BME280;61342;51.442;7.370;2023-04-25T01:22:18;99421.94;;;8.38;92.40
71239;BME280;61342;51.442;7.370;2023-04-25T01:23:20;99416.22;;;8.38;92.51
71239;BME280;61342;51.442;7.370;2023-04-25T01:24:20;99421.16;;;8.38;92.78
71239;BME280;61342;51.442;7.370;2023-04-25T01:25:22;99417.25;;;8.35;93.02
71239;BME280;61342;51.442;7.370;2023-04-25T01:26:22;99408.69;;;8.35;93.12
71239;BME280;61342;51.442;7.370;2023-04-25T01:27:23;99410.00;;;8.34;93.38
71239;BME280;61342;51.442;7.370;2023-04-25T01:28:25;99414.94;;;8.34;93.53
71239;BME280;61342;51.442;7.370;2023-04-25T01:29:27;99421.69;;;8.36;93.61
71239;BME280;61342;51.442;7.370;2023-04-25T01:30:28;99422.22;;;8.35;94.00
71239;BME280;61342;51.442;7.370;2023-04-25T01:31:29;99416.50;;;8.35;93.85
71239;BME280;61342;51.442;7.370;2023-04-25T01:32:31;99414.94;;;8.34;94.32
71239;BME280;61342;51.442;7.370;2023-04-25T01:33:38;99415.75;;;8.34;94.36
71239;BME280;61342;51.442;7.370;2023-04-25T01:34:38;99419.91;;;8.33;94.56
71239;BME280;61342;51.442;7.370;2023-04-25T01:35:39;99418.34;;;8.32;94.63
71239;BME280;61342;51.442;7.370;2023-04-25T01:36:40;99419.91;;;8.33;94.84
71239;BME280;61342;51.442;7.370;2023-04-25T01:37:44;99421.47;;;8.34;94.74
71239;BME280;61342;51.442;7.370;2023-04-25T01:38:45;99421.47;;;8.34;94.72
71239;BME280;61342;51.442;7.370;2023-04-25T01:39:47;99427.94;;;8.35;95.20
71239;BME280;61342;51.442;7.370;2023-04-25T01:40:50;99423.00;;;8.35;95.30
71239;BME280;61342;51.442;7.370;2023-04-25T01:41:51;99431.59;;;8.35;95.46
71239;BME280;61342;51.442;7.370;2023-04-25T01:42:51;99422.22;;;8.35;95.89
71239;BME280;61342;51.442;7.370;2023-04-25T01:43:52;99431.09;;;8.31;95.63
71239;BME280;61342;51.442;7.370;2023-04-25T01:44:52;99425.63;;;8.33;95.70
71239;BME280;61342;51.442;7.370;2023-04-25T01:45:54;99427.94;;;8.35;95.69
71239;BME280;61342;51.442;7.370;2023-04-25T01:46:54;99430.34;;;8.31;95.81
71239;BME280;61342;51.442;7.370;2023-04-25T01:47:55;99431.34;;;8.33;96.02
71239;BME280;61342;51.442;7.370;2023-04-25T01:48:59;99432.91;;;8.34;96.19
71239;BME280;61342;51.442;7.370;2023-04-25T01:49:59;99434.97;;;8.34;96.08
71239;BME280;61342;51.442;7.370;2023-04-25T01:50:59;99427.19;;;8.34;96.04
71239;BME280;61342;51.442;7.370;2023-04-25T01:52:00;99425.16;;;8.29;96.43
71239;BME280;61342;51.442;7.370;2023-04-25T01:53:00;99437.84;;;8.34;96.43
71239;BME280;61342;51.442;7.370;2023-04-25T01:54:02;99428.50;;;8.33;96.59
71239;BME280;61342;51.442;7.370;2023-04-25T01:55:02;99433.19;;;8.31;96.46
71239;BME280;61342;51.442;7.370;2023-04-25T01:56:03;99440.16;;;8.35;96.23
71239;BME280;61342;51.442;7.370;2023-04-25T01:57:04;99437.31;;;8.35;96.76
71239;BME280;61342;51.442;7.370;2023-04-25T01:58:04;99440.72;;;8.34;96.80
71239;BME280;61342;51.442;7.370;2023-04-25T01:59:09;99443.56;;;8.34;96.87
71239;BME280;61342;51.442;7.370;2023-04-25T02:00:10;99441.25;;;8.32;96.77
71239;BME280;61342;51.442;7.370;2023-04-25T02:01:10;99444.88;;;8.33;97.17
71239;BME280;61342;51.442;7.370;2023-04-25T02:02:11;99436.00;;;8.36;97.24
71239;BME280;61342;51.442;7.370;2023-04-25T02:03:11;99440.97;;;8.36;97.13
71239;BME280;61342;51.442;7.370;2023-04-25T02:04:11;99434.97;;;8.34;97.31
71239;BME280;61342;51.442;7.370;2023-04-25T02:05:12;99437.09;;;8.33;97.42
71239;BME280;61342;51.442;7.370;2023-04-25T02:06:12;99433.97;;;8.31;97.36
71239;BME280;61342;51.442;7.370;2023-04-25T02:07:12;99442.56;;;8.31;97.49
71239;BME280;61342;51.442;7.370;2023-04-25T02:08:13;99442.00;;;8.33;97.62
71239;BME280;61342;51.442;7.370;2023-04-25T02:09:13;99452.69;;;8.32;97.50
71239;BME280;61342;51.442;7.370;2023-04-25T02:10:14;99445.66;;;8.33;97.39
71239;BME280;61342;51.442;7.370;2023-04-25T02:11:15;99446.44;;;8.34;97.81
71239;BME280;61342;51.442;7.370;2023-04-25T02:12:16;99442.00;;;8.33;97.77
71239;BME280;61342;51.442;7.370;2023-04-25T02:13:16;99446.97;;;8.32;97.57
71239;BME280;61342;51.442;7.370;2023-04-25T02:14:17;99443.88;;;8.30;97.92
71239;BME280;61342;51.442;7.370;2023-04-25T02:15:17;99449.31;;;8.34;97.77
71239;BME280;61342;51.442;7.370;2023-04-25T02:16:18;99439.69;;;8.31;97.74
71239;BME280;61342;51.442;7.370;2023-04-25T02:17:19;99452.69;;;8.32;97.85
71239;BME280;61342;51.442;7.370;2023-04-25T02:18:21;99449.06;;;8.32;97.99
71239;BME280;61342;51.442;7.370;2023-04-25T02:19:22;99449.59;;;8.30;97.91
71239;BME280;61342;51.442;7.370;2023-04-25T02:20:23;99454.00;;;8.31;97.91
71239;BME280;61342;51.442;7.370;2023-04-25T02:21:24;99444.16;;;8.27;97.79
71239;BME280;61342;51.442;7.370;2023-04-25T02:22:24;99444.94;;;8.27;97.84
71239;BME280;61342;51.442;7.370;2023-04-25T02:23:25;99450.13;;;8.29;98.06
71239;BME280;61342;51.442;7.370;2023-04-25T02:24:25;99454.84;;;8.26;98.01
71239;BME280;61342;51.442;7.370;2023-04-25T02:25:28;99447.56;;;8.25;98.18
71239;BME280;61342;51.442;7.370;2023-04-25T02:26:31;99452.22;;;8.28;97.93
71239;BME280;61342;51.442;7.370;2023-04-25T02:27:31;99456.63;;;8.29;98.24
71239;BME280;61342;51.442;7.370;2023-04-25T02:28:32;99459.50;;;8.29;98.11
71239;BME280;61342;51.442;7.370;2023-04-25T02:29:32;99452.22;;;8.28;98.25
71239;BME280;61342;51.442;7.370;2023-04-25T02:30:32;99459.25;;;8.27;97.99
71239;BME280;61342;51.442;7.370;2023-04-25T02:31:33;99459.50;;;8.29;98.28
71239;BME280;61342;51.442;7.370;2023-04-25T02:32:33;99448.34;;;8.26;98.09
71239;BME280;61342;51.442;7.370;2023-04-25T02:33:34;99459.50;;;8.29;98.32
71239;BME280;61342;51.442;7.370;2023-04-25T02:34:34;99454.06;;;8.26;98.01
71239;BME280;61342;51.442;7.370;2023-04-25T02:35:35;99455.63;;;8.27;98.12
71239;BME280;61342;51.442;7.370;2023-04-25T02:36:35;99460.81;;;8.28;98.23
71239;BME280;61342;51.442;7.370;2023-04-25T02:37:37;99463.66;;;8.28;98.35
71239;BME280;61342;51.442;7.370;2023-04-25T02:38:38;99464.19;;;8.27;98.30
71239;BME280;61342;51.442;7.370;2023-04-25T02:39:38;99434.66;;;8.13;98.20
71239;BME280;61342;51.442;7.370;2023-04-25T02:40:39;99470.94;;;8.29;98.21
71239;BME280;61342;51.442;7.370;2023-04-25T02:41:40;99470.94;;;8.29;98.32
71239;BME280;61342;51.442;7.370;2023-04-25T02:42:41;99467.84;;;8.27;98.28
71239;BME280;61342;51.442;7.370;2023-04-25T02:43:41;99456.91;;;8.26;98.40
71239;BME280;61342;51.442;7.370;2023-04-25T02:44:41;99466.00;;;8.30;98.42
71239;BME280;61342;51.442;7.370;2023-04-25T02:45:42;99468.63;;;8.28;98.54
71239;BME280;61342;51.442;7.370;2023-04-25T02:46:42;99466.78;;;8.30;98.44
71239;BME280;61342;51.442;7.370;2023-04-25T02:47:42;99463.44;;;8.26;98.55
71239;BME280;61342;51.442;7.370;2023-04-25T02:48:43;99463.66;;;8.28;98.67
71239;BME280;61342;51.442;7.370;2023-04-25T02:49:43;99470.94;;;8.29;98.83
71239;BME280;61342;51.442;7.370;2023-04-25T02:50:45;99472.50;;;8.30;98.66
71239;BME280;61342;51.442;7.370;2023-04-25T02:51:45;99473.03;;;8.29;98.99
71239;BME280;61342;51.442;7.370;2023-04-25T02:52:46;99469.66;;;8.30;98.88
71239;BME280;61342;51.442;7.370;2023-04-25T02:53:46;99472.75;;;8.32;98.97
71239;BME280;61342;51.442;7.370;2023-04-25T02:54:46;99467.00;;;8.32;99.24
71239;BME280;61342;51.442;7.370;2023-04-25T02:55:47;99475.59;;;8.32;99.17
71239;BME280;61342;51.442;7.370;2023-04-25T02:56:47;99469.88;;;8.32;99.38
71239;BME280;61342;51.442;7.370;2023-04-25T02:57:47;99463.66;;;8.28;99.46
71239;BME280;61342;51.442;7.370;2023-04-25T02:58:48;99461.28;;;8.32;99.57
71239;BME280;61342;51.442;7.370;2023-04-25T02:59:48;99471.19;;;8.31;99.31
71239;BME280;61342;51.442;7.370;2023-04-25T03:00:48;99460.56;;;8.26;99.67
71239;BME280;61342;51.442;7.370;2023-04-25T03:01:49;99477.16;;;8.33;99.88
71239;BME280;61342;51.442;7.370;2023-04-25T03:02:50;99469.34;;;8.34;99.91
71239;BME280;61342;51.442;7.370;2023-04-25T03:03:51;99471.44;;;8.33;100.00
71239;BME280;61342;51.442;7.370;2023-04-25T03:04:51;99462.31;;;8.35;100.00
71239;BME280;61342;51.442;7.370;2023-04-25T03:05:52;99467.00;;;8.32;100.00
71239;BME280;61342;51.442;7.370;2023-04-25T03:06:52;99475.88;;;8.34;100.00
71239;BME280;61342;51.442;7.370;2023-04-25T03:07:53;99471.97;;;8.32;100.00
71239;BME280;61342;51.442;7.370;2023-04-25T03:08:53;99472.19;;;8.34;100.00
71239;BME280;61342;51.442;7.370;2023-04-25T03:09:54;99463.66;;;8.28;100.00
71239;BME280;61342;51.442;7.370;2023-04-25T03:10:55;99461.34;;;8.27;100.00
71239;BME280;61342;51.442;7.370;2023-04-25T03:11:56;99466.78;;;8.30;100.00
71239;BME280;61342;51.442;7.370;2023-04-25T03:12:56;99475.38;;;8.30;100.00
71239;BME280;61342;51.442;7.370;2023-04-25T03:13:56;99472.50;;;8.30;100.00
71239;BME280;61342;51.442;7.370;2023-04-25T03:14:57;99472.78;;;8.27;100.00
71239;BME280;61342;51.442;7.370;2023-04-25T03:15:57;99471.50;;;8.28;100.00
71239;BME280;61342;51.442;7.370;2023-04-25T03:16:57;99482.94;;;8.28;100.00
71239;BME280;61342;51.442;7.370;2023-04-25T03:17:58;99482.41;;;8.29;100.00
71239;BME280;61342;51.442;7.370;2023-04-25T03:18:58;99481.38;;;8.27;100.00
71239;BME280;61342;51.442;7.370;2023-04-25T03:19:58;99485.31;;;8.24;100.00
71239;BME280;61342;51.442;7.370;2023-04-25T03:20:59;99482.47;;;8.24;100.00
71239;BME280;61342;51.442;7.370;2023-04-25T03:21:59;99481.91;;;8.25;100.00
71239;BME280;61342;51.442;7.370;2023-04-25T03:23:00;99472.84;;;8.21;100.00
71239;BME280;61342;51.442;7.370;2023-04-25T03:24:03;99477.25;;;8.22;100.00
71239;BME280;61342;51.442;7.370;2023-04-25T03:25:04;99472.34;;;8.17;100.00
71239;BME280;61342;51.442;7.370;2023-04-25T03:26:05;99476.47;;;8.22;100.00
71239;BME280;61342;51.442;7.370;2023-04-25T03:27:05;99484.00;;;8.25;100.00
71239;BME280;61342;51.442;7.370;2023-04-25T03:28:05;99475.94;;;8.23;100.00
71239;BME280;61342;51.442;7.370;2023-04-25T03:29:06;99474.91;;;8.21;100.00
71239;BME280;61342;51.442;7.370;2023-04-25T03:30:06;99487.38;;;8.23;100.00
71239;BME280;61342;51.442;7.370;2023-04-25T03:31:07;99478.56;;;8.21;100.00
71239;BME280;61342;51.442;7.370;2023-04-25T03:32:11;99469.50;;;8.17;100.00
71239;BME280;61342;51.442;7.370;2023-04-25T03:33:11;99479.09;;;8.20;100.00
71239;BME280;61342;51.442;7.370;2023-04-25T03:34:12;99480.09;;;8.22;100.00
71239;BME280;61342;51.442;7.370;2023-04-25T03:35:14;99480.16;;;8.17;100.00
71239;BME280;61342;51.442;7.370;2023-04-25T03:36:14;99482.97;;;8.22;100.00
71239;BME280;61342;51.442;7.370;2023-04-25T03:37:15;99485.59;;;8.20;100.00
71239;BME280;61342;51.442;7.370;2023-04-25T03:38:15;99475.50;;;8.14;100.00
71239;BME280;61342;51.442;7.370;2023-04-25T03:39:15;99479.13;;;8.14;100.00
71239;BME280;61342;51.442;7.370;2023-04-25T03:40:16;99488.19;;;8.18;100.00
71239;BME280;61342;51.442;7.370;2023-04-25T03:41:16;99484.03;;;8.19;100.00
71239;BME280;61342;51.442;7.370;2023-04-25T03:42:17;99487.16;;;8.21;100.00
71239;BME280;61342;51.442;7.370;2023-04-25T03:43:17;99480.16;;;8.17;100.00
71239;BME280;61342;51.442;7.370;2023-04-25T03:44:18;99482.47;;;8.18;100.00
71239;BME280;61342;51.442;7.370;2023-04-25T03:45:18;99490.03;;;8.21;100.00
71239;BME280;61342;51.442;7.370;2023-04-25T03:46:18;99488.47;;;8.20;100.00
71239;BME280;61342;51.442;7.370;2023-04-25T03:47:19;99487.44;;;8.18;100.00
71239;BME280;61342;51.442;7.370;2023-04-25T03:48:19;99488.75;;;8.17;100.00
71239;BME280;61342;51.442;7.370;2023-04-25T03:49:25;99491.06;;;8.18;100.00
71239;BME280;61342;51.442;7.370;2023-04-25T03:50:25;99502.78;;;8.20;100.00
71239;BME280;61342;51.442;7.370;2023-04-25T03:51:25;99498.13;;;8.17;100.00
71239;BME280;61342;51.442;7.370;2023-04-25T03:52:26;99500.44;;;8.19;100.00
71239;BME280;61342;51.442;7.370;2023-04-25T03:53:26;99504.06;;;8.19;100.00
71239;BME280;61342;51.442;7.370;2023-04-25T03:54:26;99496.56;;;8.16;100.00
71239;BME280;61342;51.442;7.370;2023-04-25T03:55:27;99505.38;;;8.18;100.00
71239;BME280;61342;51.442;7.370;2023-04-25T03:56:27;99497.09;;;8.15;100.00
71239;BME280;61342;51.442;7.370;2023-04-25T03:57:27;99502.03;;;8.14;100.00
71239;BME280;61342;51.442;7.370;2023-04-25T03:58:28;99503.06;;;8.17;100.00
71239;BME280;61342;51.442;7.370;2023-04-25T03:59:28;99493.44;;;8.14;100.00
71239;BME280;61342;51.442;7.370;2023-04-25T04:00:28;99494.47;;;8.11;100.00
71239;BME280;61342;51.442;7.370;2023-04-25T04:01:29;99490.84;;;8.16;100.00
71239;BME280;61342;51.442;7.370;2023-04-25T04:02:29;99498.13;;;8.17;100.00
71239;BME280;61342;51.442;7.370;2023-04-25T04:03:30;99491.91;;;8.13;100.00
71239;BME280;61342;51.442;7.370;2023-04-25T04:04:30;99478.91;;;8.07;100.00
71239;BME280;61342;51.442;7.370;2023-04-25T04:05:30;99500.72;;;8.15;100.00
71239;BME280;61342;51.442;7.370;2023-04-25T04:06:31;99492.66;;;8.14;100.00
71239;BME280;61342;51.442;7.370;2023-04-25T04:07:31;99495.00;;;8.15;100.00
71239;BME280;61342;51.442;7.370;2023-04-25T04:08:33;99493.44;;;8.14;100.00
71239;BME280;61342;51.442;7.370;2023-04-25T04:09:33;99495.00;;;8.15;100.00
71239;BME280;61342;51.442;7.370;2023-04-25T04:10:34;99493.97;;;8.13;100.00
71239;BME280;61342;51.442;7.370;2023-04-25T04:11:34;99499.41;;;8.16;100.00
71239;BME280;61342;51.442;7.370;2023-04-25T04:12:37;99504.63;;;8.12;100.00
71239;BME280;61342;51.442;7.370;2023-04-25T04:13:37;99493.97;;;8.13;100.00
71239;BME280;61342;51.442;7.370;2023-04-25T04:14:38;99498.94;;;8.07;100.00
71239;BME280;61342;51.442;7.370;2023-04-25T04:15:38;99509.09;;;8.13;100.00
71239;BME280;61342;51.442;7.370;2023-04-25T04:16:39;99499.72;;;8.07;100.00
71239;BME280;61342;51.442;7.370;2023-04-25T04:17:39;99493.50;;;8.03;100.00
71239;BME280;61342;51.442;7.370;2023-04-25T04:18:41;99486.22;;;8.02;100.00
71239;BME280;61342;51.442;7.370;2023-04-25T04:19:41;99507.50;;;8.12;100.00
71239;BME280;61342;51.442;7.370;2023-04-25T04:20:42;99506.44;;;8.15;100.00
71239;BME280;61342;51.442;7.370;2023-04-25T04:21:42;99509.09;;;8.13;100.00
71239;BME280;61342;51.442;7.370;2023-04-25T04:22:42;99514.00;;;8.13;100.00
71239;BME280;61342;51.442;7.370;2023-04-25T04:23:43;99522.84;;;8.15;100.00
71239;BME280;61342;51.442;7.370;2023-04-25T04:24:43;99527.56;;;8.07;100.00
71239;BME280;61342;51.442;7.370;2023-04-25T04:25:44;99541.56;;;8.10;100.00
71239;BME280;61342;51.442;7.370;2023-04-25T04:26:44;99520.28;;;8.06;100.00
71239;BME280;61342;51.442;7.370;2023-04-25T04:27:45;99526.53;;;8.04;100.00
71239;BME280;61342;51.442;7.370;2023-04-25T04:28:46;99524.44;;;8.05;100.00
71239;BME280;61342;51.442;7.370;2023-04-25T04:29:46;99522.91;;;7.99;100.00
71239;BME280;61342;51.442;7.370;2023-04-25T04:30:47;99535.63;;;8.08;100.00
71239;BME280;61342;51.442;7.370;2023-04-25T04:31:48;99527.34;;;8.00;100.00
71239;BME280;61342;51.442;7.370;2023-04-25T04:32:50;99533.81;;;8.05;100.00
71239;BME280;61342;51.442;7.370;2023-04-25T04:33:50;99532.78;;;8.03;100.00
71239;BME280;61342;51.442;7.370;2023-04-25T04:34:51;99526.53;;;8.04;100.00
71239;BME280;61342;51.442;7.370;2023-04-25T04:35:52;99527.84;;;8.03;100.00
71239;BME280;61342;51.442;7.370;2023-04-25T04:36:53;99516.47;;;7.93;100.00
71239;BME280;61342;51.442;7.370;2023-04-25T04:37:53;99534.13;;;7.97;100.00
71239;BME280;61342;51.442;7.370;2023-04-25T04:38:54;99528.41;;;7.97;99.98
71239;BME280;61342;51.442;7.370;2023-04-25T04:39:56;99526.13;;;7.90;99.84
71239;BME280;61342;51.442;7.370;2023-04-25T04:40:56;99537.28;;;7.93;99.26
71239;BME280;61342;51.442;7.370;2023-04-25T04:41:57;99539.06;;;7.96;99.42
71239;BME280;61342;51.442;7.370;2023-04-25T04:42:57;99536.50;;;7.93;99.23
71239;BME280;61342;51.442;7.370;2023-04-25T04:43:57;99540.44;;;7.90;98.91
71239;BME280;61342;51.442;7.370;2023-04-25T04:44:58;99529.50;;;7.88;98.91
71239;BME280;61342;51.442;7.370;2023-04-25T04:46:00;99547.16;;;7.92;98.62
71239;BME280;61342;51.442;7.370;2023-04-25T04:47:01;99542.75;;;7.91;98.49
71239;BME280;61342;51.442;7.370;2023-04-25T04:48:02;99527.97;;;7.82;98.22
71239;BME280;61342;51.442;7.370;2023-04-25T04:49:05;99524.88;;;7.80;97.82
71239;BME280;61342;51.442;7.370;2023-04-25T04:50:07;99533.69;;;7.82;97.89
71239;BME280;61342;51.442;7.370;2023-04-25T04:51:09;99523.59;;;7.75;98.09
71239;BME280;61342;51.442;7.370;2023-04-25T04:52:09;99532.97;;;7.76;97.77
71239;BME280;61342;51.442;7.370;2023-04-25T04:53:10;99546.41;;;7.86;97.55
71239;BME280;61342;51.442;7.370;2023-04-25T04:54:10;99538.63;;;7.81;97.38
71239;BME280;61342;51.442;7.370;2023-04-25T04:55:11;99539.72;;;7.78;97.38
71239;BME280;61342;51.442;7.370;2023-04-25T04:56:11;99548.78;;;7.82;97.14
71239;BME280;61342;51.442;7.370;2023-04-25T04:57:11;99537.38;;;7.77;97.31
71239;BME280;61342;51.442;7.370;2023-04-25T04:58:12;99528.31;;;7.73;97.25
71239;BME280;61342;51.442;7.370;2023-04-25T04:59:12;99548.00;;;7.82;96.93
71239;BME280;61342;51.442;7.370;2023-04-25T05:00:13;99536.13;;;7.67;96.97
71239;BME280;61342;51.442;7.370;2023-04-25T05:01:13;99550.63;;;7.80;96.94
71239;BME280;61342;51.442;7.370;2023-04-25T05:02:16;99525.75;;;7.64;96.73
71239;BME280;61342;51.442;7.370;2023-04-25T05:03:16;99538.97;;;7.67;96.62
71239;BME280;61342;51.442;7.370;2023-04-25T05:04:16;99551.16;;;7.78;96.63
71239;BME280;61342;51.442;7.370;2023-04-25T05:05:17;99557.63;;;7.79;96.53
71239;BME280;61342;51.442;7.370;2023-04-25T05:06:18;99561.53;;;7.81;96.35
71239;BME280;61342;51.442;7.370;2023-04-25T05:11:14;99563.97;;;7.61;96.20
71239;BME280;61342;51.442;7.370;2023-04-25T05:12:14;99568.66;;;7.58;96.28
71239;BME280;61342;51.442;7.370;2023-04-25T05:13:14;99571.03;;;7.54;96.53
71239;BME280;61342;51.442;7.370;2023-04-25T05:14:15;99561.94;;;7.50;96.32
71239;BME280;61342;51.442;7.370;2023-04-25T05:15:17;99553.13;;;7.43;96.60
71239;BME280;61342;51.442;7.370;2023-04-25T05:16:17;99555.97;;;7.48;96.36
71239;BME280;61342;51.442;7.370;2023-04-25T05:17:17;99560.38;;;7.49;96.65
71239;BME280;61342;51.442;7.370;2023-04-25T05:18:18;99555.19;;;7.48;96.80
71239;BME280;61342;51.442;7.370;2023-04-25T05:19:18;99559.63;;;7.49;96.77
71239;BME280;61342;51.442;7.370;2023-04-25T05:20:18;99559.84;;;7.51;96.70
71239;BME280;61342;51.442;7.370;2023-04-25T05:21:19;99572.28;;;7.59;96.49
71239;BME280;61342;51.442;7.370;2023-04-25T05:22:19;99563.22;;;7.55;96.36
71239;BME280;61342;51.442;7.370;2023-04-25T05:23:20;99573.31;;;7.61;96.46
71239;BME280;61342;51.442;7.370;2023-04-25T05:24:20;99561.66;;;7.54;96.56
71239;BME280;61342;51.442;7.370;2023-04-25T05:25:20;99557.75;;;7.57;96.35
71239;BME280;61342;51.442;7.370;2023-04-25T05:26:21;99575.13;;;7.64;96.36
71239;BME280;61342;51.442;7.370;2023-04-25T05:27:21;99579.00;;;7.67;96.40
71239;BME280;61342;51.442;7.370;2023-04-25T05:28:22;99576.69;;;7.65;96.29